CheckWX is a tool to help pilots better visualize weather data.  It is not intended as a substitute for an official pre-flight weather briefing.

13:23:01 UTC

KSSF TAF
Stinson Municipal Airport
San Antonio, Texas, USA
KSSF 201130Z 2012/2112 13004KT P6SM BKN015 FM201500 15010KT P6SM SCT070 SCT250 FM210800 14003KT P6SM BKN025

Aug-20@
12:00 UTC

Aug-20 @ 12:00 UTC

Aug-20@
15:00 UTC

Aug-20 @ 15:00 UTC

KSSF 201130Z 2012/2112 13004KT P6SM BKN015
Wind
  • 130° at 4 KTS
Cloud Levels
  • Broken at 1,500' AGL

Aug-20@
15:00 UTC

Aug-20 @ 15:00 UTC

Aug-21@
08:00 UTC

Aug-21 @ 08:00 UTC

FM201500 15010KT P6SM SCT070 SCT250

From

From Standard forecast or significant change

Wind
  • 150° at 10 KTS
Cloud Levels
  • Scattered at 7,000' AGL
  • Scattered at 25,000' AGL

Aug-21@
08:00 UTC

Aug-21 @ 08:00 UTC

Aug-21@
12:00 UTC

Aug-21 @ 12:00 UTC

FM210800 14003KT P6SM BKN025

From

From Standard forecast or significant change

Wind
  • 140° at 3 KTS
Cloud Levels
  • Broken at 2,500' AGL